createdAt,value
2022-10-08T00:02:11.588Z,100494.00
2022-10-08T00:07:30.482Z,100486.34
2022-10-08T00:09:57.206Z,100486.97
2022-10-08T00:12:23.765Z,100482.78
2022-10-08T00:14:51.466Z,100486.97
2022-10-08T00:17:18.260Z,100488.63
2022-10-08T00:19:44.850Z,100486.19
2022-10-08T00:22:11.681Z,100475.41
2022-10-08T00:24:40.194Z,100464.00
2022-10-08T00:27:07.430Z,100466.00
2022-10-08T00:29:34.244Z,100471.78
2022-10-08T00:32:01.421Z,100470.81
2022-10-08T00:34:28.579Z,100464.38
2022-10-08T00:36:55.777Z,100461.38
2022-10-08T00:39:23.531Z,100461.59
2022-10-08T00:41:53.353Z,100463.59
2022-10-08T00:44:39.093Z,100463.19
2022-10-08T00:47:07.726Z,100465.81
2022-10-08T00:49:34.887Z,100456.78
2022-10-08T00:52:01.751Z,100461.59
2022-10-08T00:54:29.668Z,100460.78
2022-10-08T00:56:56.457Z,100456.38
2022-10-08T00:59:23.208Z,100465.38
2022-10-08T01:01:50.853Z,100462.00
2022-10-08T01:04:17.489Z,100454.75
2022-10-08T01:06:46.697Z,100455.38
2022-10-08T01:09:33.822Z,100450.75
2022-10-08T01:12:19.128Z,100447.91
2022-10-08T01:14:57.245Z,100441.91
2022-10-08T01:17:27.013Z,100450.53
2022-10-08T01:19:57.452Z,100437.72
2022-10-08T01:22:35.849Z,100444.34
2022-10-08T01:25:30.465Z,100440.34
2022-10-08T01:28:06.998Z,100443.97
2022-10-08T01:30:35.602Z,100449.78
2022-10-08T01:33:27.535Z,100442.34
2022-10-08T01:36:11.113Z,100437.94
2022-10-08T01:38:54.949Z,100432.13
2022-10-08T01:41:36.875Z,100438.75
2022-10-08T01:44:23.276Z,100434.16
2022-10-08T01:47:07.361Z,100435.53
2022-10-08T01:49:51.709Z,100424.94
2022-10-08T01:52:37.077Z,100428.94
2022-10-08T01:55:25.079Z,100425.91
2022-10-08T01:58:09.494Z,100426.91
2022-10-08T02:00:52.193Z,100428.69
2022-10-08T02:03:34.033Z,100422.50
2022-10-08T02:06:16.216Z,100419.06
2022-10-08T02:08:57.792Z,100421.47
2022-10-08T02:11:40.136Z,100425.28
2022-10-08T02:14:26.603Z,100421.44
2022-10-08T02:17:17.851Z,100421.81
2022-10-08T02:20:04.214Z,100416.63
2022-10-08T02:23:07.214Z,100413.44
2022-10-08T02:26:13.507Z,100412.78
2022-10-08T02:29:00.806Z,100415.78
2022-10-08T02:31:54.890Z,100406.56
2022-10-08T02:34:54.473Z,100415.38
2022-10-08T02:37:43.349Z,100411.34
2022-10-08T02:40:30.555Z,100412.34
2022-10-08T02:43:21.767Z,100416.31
2022-10-08T02:46:10.385Z,100411.31
2022-10-08T02:49:04.898Z,100408.53
2022-10-08T02:51:52.011Z,100411.13
2022-10-08T02:54:38.486Z,100417.72
2022-10-08T02:57:28.075Z,100427.13
2022-10-08T03:00:14.393Z,100421.31
2022-10-08T03:03:03.662Z,100411.72
2022-10-08T03:05:51.245Z,100406.56
2022-10-08T03:08:40.016Z,100399.75
2022-10-08T03:11:25.768Z,100391.38
2022-10-08T03:14:13.760Z,100399.91
2022-10-08T03:16:59.110Z,100411.97
2022-10-08T03:19:44.778Z,100387.78
2022-10-08T03:22:30.573Z,100405.75
2022-10-08T03:25:16.191Z,100410.00
2022-10-08T03:31:11.099Z,100404.00
2022-10-08T03:33:56.694Z,100404.56
2022-10-08T03:36:42.678Z,100400.63
2022-10-08T03:39:28.328Z,100400.19
2022-10-08T03:42:13.813Z,100402.78
2022-10-08T03:45:01.667Z,100402.19
2022-10-08T03:47:52.905Z,100401.41
2022-10-08T03:50:38.338Z,100403.38
2022-10-08T03:53:23.999Z,100402.59
2022-10-08T03:56:11.762Z,100402.97
2022-10-08T03:58:58.883Z,100408.97
2022-10-08T04:01:44.639Z,100408.75
2022-10-08T04:04:30.725Z,100408.16
2022-10-08T04:07:15.854Z,100411.53
2022-10-08T04:10:01.987Z,100414.94
2022-10-08T04:12:49.105Z,100409.50
2022-10-08T04:16:03.624Z,100407.72
2022-10-08T04:18:49.053Z,100406.88
2022-10-08T04:21:34.388Z,100404.88
2022-10-08T04:24:20.052Z,100413.63
2022-10-08T04:27:04.927Z,100410.41
2022-10-08T04:33:00.094Z,100414.75
2022-10-08T04:35:45.527Z,100422.34
2022-10-08T04:38:30.907Z,100414.09
2022-10-08T04:41:17.741Z,100416.50
2022-10-08T04:44:03.434Z,100423.09
2022-10-08T04:46:48.611Z,100421.06
2022-10-08T04:49:34.218Z,100424.66
2022-10-08T04:52:20.607Z,100422.28
2022-10-08T04:55:06.274Z,100416.66
2022-10-08T04:57:51.991Z,100414.63
2022-10-08T05:00:37.490Z,100412.22
2022-10-08T05:03:23.016Z,100419.03
2022-10-08T05:06:09.507Z,100422.22
2022-10-08T05:08:55.702Z,100421.00
2022-10-08T05:11:41.142Z,100422.63
2022-10-08T05:14:26.527Z,100414.81
2022-10-08T05:17:12.320Z,100421.81
2022-10-08T05:19:57.625Z,100423.00
2022-10-08T05:22:43.317Z,100424.22
2022-10-08T05:28:02.282Z,100427.06
2022-10-08T05:33:57.534Z,100432.72
2022-10-08T05:36:42.698Z,100425.94
2022-10-08T05:39:28.259Z,100431.00
2022-10-08T05:42:13.715Z,100438.44
2022-10-08T05:44:59.417Z,100439.28
2022-10-08T05:47:46.712Z,100447.69
2022-10-08T05:53:42.656Z,100452.47
2022-10-08T05:56:28.445Z,100457.13
2022-10-08T05:59:21.529Z,100462.94
2022-10-08T06:02:07.319Z,100462.78
2022-10-08T06:04:52.400Z,100467.56
2022-10-08T06:07:38.541Z,100467.22
2022-10-08T06:10:24.731Z,100475.59
2022-10-08T06:13:10.424Z,100474.22
2022-10-08T06:15:56.923Z,100469.78
2022-10-08T06:18:42.342Z,100468.91
2022-10-08T06:21:27.892Z,100475.06
2022-10-08T06:24:13.740Z,100484.56
2022-10-08T06:26:59.198Z,100480.56
2022-10-08T06:29:44.450Z,100484.63
2022-10-08T06:32:29.871Z,100487.72
2022-10-08T06:35:16.130Z,100484.59
2022-10-08T06:38:02.449Z,100479.53
2022-10-08T06:40:48.115Z,100489.56
2022-10-08T06:43:35.235Z,100490.34
2022-10-08T06:46:20.825Z,100484.25
2022-10-08T06:49:07.175Z,100488.44
2022-10-08T06:51:52.340Z,100501.94
2022-10-08T06:54:37.679Z,100496.03
2022-10-08T06:57:23.692Z,100501.09
2022-10-08T07:00:09.449Z,100492.03
2022-10-08T07:02:56.319Z,100505.97
2022-10-08T07:05:43.284Z,100496.41
2022-10-08T07:08:29.331Z,100500.38
2022-10-08T07:11:15.853Z,100514.06
2022-10-08T07:14:01.756Z,100506.91
2022-10-08T07:16:47.661Z,100504.00
2022-10-08T07:19:34.287Z,100508.53
2022-10-08T07:22:19.534Z,100502.03
2022-10-08T07:25:06.258Z,100504.16
2022-10-08T07:27:51.804Z,100496.94
2022-10-08T07:30:37.046Z,100499.59
2022-10-08T07:33:22.938Z,100502.94
2022-10-08T07:36:13.034Z,100509.28
2022-10-08T07:39:03.206Z,100502.56
2022-10-08T07:41:49.663Z,100513.63
2022-10-08T07:44:35.210Z,100503.50
2022-10-08T07:47:21.042Z,100504.28
2022-10-08T07:50:31.364Z,100503.84
2022-10-08T07:56:26.394Z,100504.63
2022-10-08T07:59:16.115Z,100500.63
2022-10-08T08:02:02.063Z,100510.44
2022-10-08T08:04:47.390Z,100522.63
2022-10-08T08:07:32.464Z,100509.03
2022-10-08T08:10:17.633Z,100510.72
2022-10-08T08:13:31.773Z,100509.25
2022-10-08T08:16:21.209Z,100501.84
2022-10-08T08:19:07.459Z,100512.16
2022-10-08T08:21:53.272Z,100504.47
2022-10-08T08:24:38.419Z,100512.75
2022-10-08T08:27:23.838Z,100507.69
2022-10-08T08:30:09.455Z,100514.97
2022-10-08T08:32:55.140Z,100511.34
2022-10-08T08:36:05.310Z,100508.69
2022-10-08T08:38:51.209Z,100509.59
2022-10-08T08:41:49.355Z,100508.69
2022-10-08T08:44:39.793Z,100509.63
2022-10-08T08:47:36.846Z,100500.13
2022-10-08T08:50:25.024Z,100501.56
2022-10-08T08:53:11.136Z,100504.16
2022-10-08T08:55:58.735Z,100500.97
2022-10-08T08:58:58.994Z,100496.59
2022-10-08T09:01:46.748Z,100498.97
2022-10-08T09:04:45.085Z,100502.22
2022-10-08T09:07:36.649Z,100504.00
2022-10-08T09:10:24.253Z,100511.06
2022-10-08T09:13:19.689Z,100505.75
2022-10-08T09:16:06.018Z,100503.19
2022-10-08T09:18:51.865Z,100509.66
2022-10-08T09:21:37.445Z,100503.03
2022-10-08T09:24:22.814Z,100502.69
2022-10-08T09:27:13.359Z,100498.91
2022-10-08T09:29:58.937Z,100500.75
2022-10-08T09:32:44.644Z,100499.13
2022-10-08T09:35:31.791Z,100496.03
2022-10-08T09:38:37.526Z,100497.00
2022-10-08T09:41:24.992Z,100490.44
2022-10-08T09:44:12.360Z,100491.53
2022-10-08T09:47:12.190Z,100481.31
2022-10-08T09:50:16.606Z,100488.81
2022-10-08T09:53:02.653Z,100491.84
2022-10-08T09:55:49.661Z,100486.28
2022-10-08T09:58:56.450Z,100494.50
2022-10-08T10:01:45.354Z,100487.50
2022-10-08T10:04:33.804Z,100488.75
2022-10-08T10:07:19.180Z,100488.00
2022-10-08T10:10:10.368Z,100490.09
2022-10-08T10:13:06.912Z,100489.91
2022-10-08T10:15:53.854Z,100488.69
2022-10-08T10:18:48.051Z,100471.28
2022-10-08T10:22:01.414Z,100476.13
2022-10-08T10:24:56.730Z,100471.97
2022-10-08T10:27:44.104Z,100469.59
2022-10-08T10:30:30.170Z,100461.84
2022-10-08T10:33:18.749Z,100462.34
2022-10-08T10:36:06.392Z,100453.97
2022-10-08T10:38:55.864Z,100455.00
2022-10-08T10:41:51.204Z,100446.63
2022-10-08T10:45:19.447Z,100437.69
2022-10-08T10:48:08.269Z,100443.50
2022-10-08T10:51:00.400Z,100448.22
2022-10-08T10:53:52.982Z,100432.75
2022-10-08T10:56:39.445Z,100437.28
2022-10-08T10:59:39.915Z,100435.69
2022-10-08T11:05:35.566Z,100425.69
2022-10-08T11:08:21.751Z,100420.19
2022-10-08T11:11:29.573Z,100426.22
2022-10-08T11:14:23.514Z,100416.13
2022-10-08T11:17:33.971Z,100414.78
2022-10-08T11:20:40.063Z,100416.63
2022-10-08T11:23:51.945Z,100412.41
2022-10-08T11:26:56.719Z,100405.53
2022-10-08T11:30:03.784Z,100407.94
2022-10-08T11:32:54.509Z,100407.19
2022-10-08T11:35:47.485Z,100403.25
2022-10-08T11:38:42.037Z,100392.16
2022-10-08T11:41:32.298Z,100379.97
2022-10-08T11:44:17.962Z,100379.22
2022-10-08T11:47:22.309Z,100379.69
2022-10-08T11:50:23.016Z,100374.44
2022-10-08T11:53:13.126Z,100371.34
2022-10-08T11:55:59.066Z,100362.66
2022-10-08T11:58:52.898Z,100369.38
2022-10-08T12:01:55.276Z,100349.94
2022-10-08T12:05:17.473Z,100352.19
2022-10-08T12:08:04.157Z,100346.69
2022-10-08T12:10:50.657Z,100341.75
2022-10-08T12:13:36.553Z,100333.34
2022-10-08T12:16:22.034Z,100334.66
2022-10-08T12:22:36.992Z,100332.84
2022-10-08T12:25:33.372Z,100335.56
2022-10-08T12:28:21.884Z,100332.00
2022-10-08T12:31:16.307Z,100335.22
2022-10-08T12:34:14.655Z,100333.19
2022-10-08T12:37:12.530Z,100331.16
2022-10-08T12:40:09.363Z,100331.44
2022-10-08T12:43:02.990Z,100330.47
2022-10-08T12:45:51.921Z,100334.69
2022-10-08T12:48:45.449Z,100331.53
2022-10-08T12:51:47.335Z,100335.47
2022-10-08T12:54:33.479Z,100330.41
2022-10-08T12:57:39.219Z,100333.03
2022-10-08T13:00:26.227Z,100331.97
2022-10-08T13:03:16.461Z,100334.94
2022-10-08T13:06:14.596Z,100330.81
2022-10-08T13:09:00.278Z,100322.16
2022-10-08T13:12:10.768Z,100328.72
2022-10-08T13:15:09.410Z,100322.47
2022-10-08T13:17:55.063Z,100321.75
2022-10-08T13:21:08.274Z,100317.56
2022-10-08T13:23:53.492Z,100309.97
2022-10-08T13:26:43.833Z,100315.75
2022-10-08T13:29:30.454Z,100317.88
2022-10-08T13:32:21.266Z,100322.59
2022-10-08T13:35:32.680Z,100312.63
2022-10-08T13:38:21.028Z,100314.16
2022-10-08T13:41:23.918Z,100312.06
2022-10-08T13:44:09.656Z,100308.38
2022-10-08T13:46:58.921Z,100311.78
2022-10-08T13:49:47.482Z,100306.22
2022-10-08T13:55:44.666Z,100305.91
2022-10-08T13:58:30.052Z,100301.19
2022-10-08T14:01:15.439Z,100301.97
2022-10-08T14:04:00.569Z,100302.44
2022-10-08T14:06:49.023Z,100299.78
2022-10-08T14:09:34.435Z,100296.06
2022-10-08T14:12:23.163Z,100292.66
2022-10-08T14:15:10.047Z,100293.34
2022-10-08T14:17:56.220Z,100282.19
2022-10-08T14:20:41.526Z,100289.00
2022-10-08T14:23:27.318Z,100289.78
2022-10-08T14:26:37.100Z,100292.06
2022-10-08T14:29:23.361Z,100283.13
2022-10-08T14:32:32.997Z,100278.66
2022-10-08T14:35:18.555Z,100271.59
2022-10-08T14:38:03.927Z,100274.25
2022-10-08T14:40:49.814Z,100277.38
2022-10-08T14:43:35.070Z,100267.66
2022-10-08T14:46:20.962Z,100272.69
2022-10-08T14:49:07.028Z,100281.13
2022-10-08T14:51:53.146Z,100270.31
2022-10-08T14:54:38.631Z,100274.78
2022-10-08T14:57:23.805Z,100271.13
2022-10-08T15:00:10.121Z,100272.72
2022-10-08T15:02:55.352Z,100276.38
2022-10-08T15:05:40.776Z,100268.47
2022-10-08T15:08:26.396Z,100263.94
2022-10-08T15:11:12.580Z,100272.59
2022-10-08T15:13:59.533Z,100274.63
2022-10-08T15:16:45.318Z,100270.88
2022-10-08T15:19:31.203Z,100266.59
2022-10-08T15:22:16.644Z,100267.13
2022-10-08T15:25:02.505Z,100266.56
2022-10-08T15:27:48.168Z,100264.44
2022-10-08T15:30:34.764Z,100270.19
2022-10-08T15:33:20.150Z,100260.13
2022-10-08T15:36:26.560Z,100273.22
2022-10-08T15:39:16.101Z,100263.94
2022-10-08T15:42:01.652Z,100268.56
2022-10-08T15:44:47.543Z,100265.34
2022-10-08T15:47:33.369Z,100275.00
2022-10-08T15:53:32.815Z,100272.53
2022-10-08T15:56:18.500Z,100282.41
2022-10-08T15:59:04.763Z,100283.84
2022-10-08T16:01:50.213Z,100287.72
2022-10-08T16:04:35.477Z,100292.31
2022-10-08T16:07:21.458Z,100299.03
2022-10-08T16:10:06.776Z,100296.34
2022-10-08T16:12:52.105Z,100299.94
2022-10-08T16:16:02.418Z,100305.91
2022-10-08T16:18:51.229Z,100298.75
2022-10-08T16:21:37.403Z,100306.53
2022-10-08T16:24:23.509Z,100308.28
2022-10-08T16:27:09.052Z,100303.97
2022-10-08T16:30:19.633Z,100312.56
2022-10-08T16:33:05.595Z,100314.06
2022-10-08T16:35:51.469Z,100313.41
2022-10-08T16:38:40.882Z,100327.00
2022-10-08T16:41:27.515Z,100327.13
2022-10-08T16:44:14.606Z,100328.31
2022-10-08T16:46:59.693Z,100329.28
2022-10-08T16:49:44.616Z,100329.16
2022-10-08T16:52:30.303Z,100331.69
2022-10-08T16:55:15.488Z,100326.59
2022-10-08T16:58:01.134Z,100333.59
2022-10-08T17:00:47.635Z,100334.72
2022-10-08T17:03:32.866Z,100335.44
2022-10-08T17:06:18.954Z,100343.19
2022-10-08T17:09:04.543Z,100344.13
2022-10-08T17:11:50.289Z,100339.81
2022-10-08T17:14:37.898Z,100345.16
2022-10-08T17:17:23.111Z,100342.13
2022-10-08T17:20:08.866Z,100351.44
2022-10-08T17:22:53.919Z,100358.41
2022-10-08T17:25:39.412Z,100352.25
2022-10-08T17:28:28.764Z,100358.97
2022-10-08T17:31:17.329Z,100355.97
2022-10-08T17:34:04.159Z,100356.47
2022-10-08T17:36:52.451Z,100359.31
2022-10-08T17:39:37.723Z,100360.31
2022-10-08T17:42:23.697Z,100363.41
2022-10-08T17:45:09.862Z,100358.59
2022-10-08T17:47:55.265Z,100358.50
2022-10-08T17:50:40.776Z,100361.59
2022-10-08T17:53:26.570Z,100359.41
2022-10-08T17:56:13.482Z,100370.31
2022-10-08T17:58:58.706Z,100372.78
2022-10-08T18:01:45.798Z,100365.41
2022-10-08T18:04:31.891Z,100370.88
2022-10-08T18:07:17.165Z,100375.53
2022-10-08T18:10:02.469Z,100379.59
2022-10-08T18:12:48.688Z,100381.66
2022-10-08T18:15:36.857Z,100383.91
2022-10-08T18:18:22.124Z,100380.19
2022-10-08T18:21:08.349Z,100382.66
2022-10-08T18:23:53.530Z,100381.06
2022-10-08T18:26:39.527Z,100389.38
2022-10-08T18:29:24.891Z,100391.03
2022-10-08T18:35:19.916Z,100396.81
2022-10-08T18:38:05.769Z,100398.84
2022-10-08T18:40:51.272Z,100413.13
2022-10-08T18:43:36.765Z,100408.56
2022-10-08T18:46:22.955Z,100406.41
2022-10-08T18:49:12.389Z,100414.69
2022-10-08T18:51:58.091Z,100422.97
2022-10-08T18:54:43.890Z,100420.22
2022-10-08T18:57:29.396Z,100415.41
2022-10-08T19:00:15.520Z,100419.28
2022-10-08T19:03:01.305Z,100421.53
2022-10-08T19:05:46.678Z,100427.19
2022-10-08T19:08:32.872Z,100421.38
2022-10-08T19:11:22.992Z,100432.25
2022-10-08T19:14:10.676Z,100436.69
2022-10-08T19:16:56.057Z,100427.03
2022-10-08T19:19:41.241Z,100435.69
2022-10-08T19:22:26.412Z,100438.31
2022-10-08T19:25:11.406Z,100442.72
2022-10-08T19:27:57.581Z,100439.50
2022-10-08T19:30:43.884Z,100447.00
2022-10-08T19:33:30.528Z,100445.19
2022-10-08T19:36:16.259Z,100442.56
2022-10-08T19:39:05.094Z,100451.22
2022-10-08T19:42:16.032Z,100449.41
2022-10-08T19:45:02.937Z,100446.59
2022-10-08T19:47:49.068Z,100443.16
2022-10-08T19:50:35.402Z,100438.75
2022-10-08T19:53:22.366Z,100451.00
2022-10-08T19:56:08.460Z,100446.78
2022-10-08T19:59:18.663Z,100452.03
2022-10-08T20:02:03.887Z,100460.88
2022-10-08T20:04:49.567Z,100452.44
2022-10-08T20:07:35.839Z,100474.41
2022-10-08T20:10:21.575Z,100468.97
2022-10-08T20:13:06.868Z,100474.66
2022-10-08T20:15:52.708Z,100471.88
2022-10-08T20:18:38.513Z,100479.91
2022-10-08T20:21:24.447Z,100484.00
2022-10-08T20:24:10.440Z,100477.97
2022-10-08T20:26:55.473Z,100486.81
2022-10-08T20:29:40.976Z,100486.25
2022-10-08T20:32:27.501Z,100492.47
2022-10-08T20:35:13.159Z,100495.28
2022-10-08T20:37:58.903Z,100503.31
2022-10-08T20:40:43.996Z,100497.53
2022-10-08T20:43:30.688Z,100510.16
2022-10-08T20:46:19.034Z,100513.34
2022-10-08T20:49:05.295Z,100516.94
2022-10-08T20:51:50.948Z,100516.91
2022-10-08T20:57:46.625Z,100503.53
2022-10-08T21:00:32.510Z,100506.34
2022-10-08T21:03:18.921Z,100515.44
2022-10-08T21:06:05.017Z,100520.09
2022-10-08T21:08:51.564Z,100526.91
2022-10-08T21:11:37.218Z,100531.53
2022-10-08T21:14:22.729Z,100527.34
2022-10-08T21:17:08.481Z,100521.09
2022-10-08T21:19:54.337Z,100526.09
2022-10-08T21:22:40.812Z,100526.91
2022-10-08T21:25:25.937Z,100529.06
2022-10-08T21:28:14.544Z,100526.44
2022-10-08T21:31:03.932Z,100525.44
2022-10-08T21:33:53.193Z,100532.94
2022-10-08T21:37:03.718Z,100534.16
2022-10-08T21:39:53.373Z,100536.56
2022-10-08T21:42:38.521Z,100532.13
2022-10-08T21:45:24.725Z,100536.53
2022-10-08T21:48:11.446Z,100535.25
2022-10-08T21:50:57.356Z,100531.78
2022-10-08T21:53:46.507Z,100532.75
2022-10-08T21:56:59.613Z,100533.13
2022-10-08T21:59:45.689Z,100532.13
2022-10-08T22:02:30.998Z,100540.34
2022-10-08T22:05:16.702Z,100535.84
2022-10-08T22:08:01.905Z,100546.44
2022-10-08T22:10:48.136Z,100544.13
2022-10-08T22:13:33.847Z,100531.75
2022-10-08T22:16:20.269Z,100543.53
2022-10-08T22:19:06.124Z,100545.31
2022-10-08T22:21:51.670Z,100536.53
2022-10-08T22:24:38.023Z,100541.91
2022-10-08T22:27:23.964Z,100535.25
2022-10-08T22:30:09.928Z,100548.09
2022-10-08T22:32:54.940Z,100556.53
2022-10-08T22:35:41.244Z,100561.56
2022-10-08T22:38:27.734Z,100564.59
2022-10-08T22:41:14.999Z,100566.91
2022-10-08T22:44:00.891Z,100568.84
2022-10-08T22:46:46.566Z,100569.31
2022-10-08T22:49:31.953Z,100563.53
2022-10-08T22:52:17.882Z,100571.44
2022-10-08T22:55:03.145Z,100572.66
2022-10-08T22:57:48.738Z,100570.28
2022-10-08T23:00:34.313Z,100563.44
2022-10-08T23:03:44.943Z,100563.00
2022-10-08T23:06:32.017Z,100572.66
2022-10-08T23:09:17.398Z,100579.88
2022-10-08T23:12:02.913Z,100570.97
2022-10-08T23:14:48.365Z,100567.16
2022-10-08T23:17:34.358Z,100578.22
2022-10-08T23:20:19.611Z,100583.94
2022-10-08T23:23:05.478Z,100588.81
2022-10-08T23:25:57.145Z,100602.06
2022-10-08T23:28:44.322Z,100601.25
2022-10-08T23:31:34.062Z,100601.81
2022-10-08T23:34:19.244Z,100611.03
2022-10-08T23:37:04.807Z,100618.09
2022-10-08T23:39:54.371Z,100620.72
2022-10-08T23:42:42.498Z,100624.34
2022-10-08T23:45:28.473Z,100633.19
2022-10-08T23:48:13.905Z,100637.88
2022-10-08T23:50:59.297Z,100651.97
2022-10-08T23:53:45.172Z,100647.75
2022-10-08T23:56:30.549Z,100638.94
2022-10-08T23:59:16.195Z,100642.00
